Aérodrome :
LOGIN :

S'inscrire | Disclaimer

   EN    FR    IT 

 










Légende :    VFR   VFR Marginal   IFR   IFR Intensif   IFR Très Intensif
Visi : 
Plafond : 
>= 8 km
>= 3000ft
5 à 8 km
1000 à 3000 ft
1500m à 5 km
500 à 1000 ft
800 à 1500m
200 à 500 ft
< 800m
< 200 ft
Symboles :   Orages  Brouillard  Fortes neiges  Fortes précipitations  Vent > 20 kt
SIGMETs :   Divers  Orages  Givrage  Turbulence  Onde Orograph.  Cendres Volcan.







- Altitude de l'aérodrome : 3 ft
- Code IATA : LWR


EHLW - Leuuwarden Air Base

DERNIER METAR :
  • 120355Z AUTO 08004KT 030V110 9999 OVC035 01/01 Q1025 BLU

METARs EXPIRÉS :
  • 120325Z AUTO VRB02KT 9999 BKN026 OVC030 00/00 Q1025 BLU
  • 120302Z AUTO 02002KT 9999 BKN031 OVC035 00/00 Q1025 BLU
  • 120255Z AUTO VRB02KT 9000 -FZRA FEW028/// BKN032/// OVC036/// 00/M00 Q1025 REDZ BLU
  • 120247Z AUTO 06003KT 9999 FZDZ FEW024 BKN030 OVC035 00/00 Q1025 BLU
  • 120225Z AUTO VRB02KT 9999 BKN032 OVC037 M00/M01 Q1025 BLU
  • 120155Z AUTO 00000KT 9999 BKN031 OVC035 M01/M01 Q1025 BLU
  • 120125Z AUTO 35001KT 9999 BKN030 BKN035 M01/M01 Q1025 BLU

TAF TAF EHLW
Valide du 11 à 18h jusqu'au 12 à 06h UTC


111732Z 1118/1206 VRB03KT 9999 FEW025 SCT040
PROB30
TEMPO 1200/1206 4000 BR
Pas de NOTAMs connus pour ce terrain.



MET'MAP, la Météo Aéronautique d'un coup d'oeil ! - Copyright ORBIFLY Décembre 2007 - Disclaimer

ORBIFLY MET'MAP TEAM :

Programmation & Développement : Alexandra Zaïnal
Conception & Développement : Baudouin d'Aumeries
Co-Programmation & Développement : Marc-Olivier Méhu
Soutien technique & logistique : Manuel Goepfert

Contact : metmap@orbifly.com




SOURCES & CREDITS :

   NOAA